createdAt,value
2022-09-15T00:01:41.476Z,15.57
2022-09-15T00:04:09.721Z,15.50
2022-09-15T00:06:37.892Z,15.42
2022-09-15T00:09:06.275Z,15.34
2022-09-15T00:11:37.213Z,15.29
2022-09-15T00:14:07.300Z,15.23
2022-09-15T00:16:35.567Z,15.19
2022-09-15T00:19:06.620Z,15.14
2022-09-15T00:21:40.253Z,15.09
2022-09-15T00:24:09.523Z,15.05
2022-09-15T00:26:38.554Z,15.01
2022-09-15T00:29:06.720Z,14.98
2022-09-15T00:31:35.100Z,14.94
2022-09-15T00:34:03.171Z,14.91
2022-09-15T00:36:33.288Z,14.88
2022-09-15T00:39:01.568Z,14.86
2022-09-15T00:41:30.254Z,14.85
2022-09-15T00:44:07.342Z,14.84
2022-09-15T00:46:39.808Z,14.83
2022-09-15T00:49:18.734Z,14.83
2022-09-15T00:51:57.375Z,14.84
2022-09-15T00:54:51.437Z,14.85
2022-09-15T00:57:30.878Z,14.87
2022-09-15T01:00:00.982Z,14.89
2022-09-15T01:02:35.580Z,14.92
2022-09-15T01:05:09.300Z,14.93
2022-09-15T01:07:49.476Z,14.95
2022-09-15T01:10:31.479Z,14.96
2022-09-15T01:13:02.975Z,14.97
2022-09-15T01:16:08.859Z,14.99
2022-09-15T01:18:37.270Z,15.00
2022-09-15T01:21:26.841Z,14.99
2022-09-15T01:24:27.173Z,14.99
2022-09-15T01:27:41.057Z,14.97
2022-09-15T01:30:22.269Z,14.94
2022-09-15T01:33:23.445Z,14.91
2022-09-15T01:35:57.717Z,14.86
2022-09-15T01:39:23.079Z,14.81
2022-09-15T01:41:56.170Z,14.76
2022-09-15T01:44:31.926Z,14.74
2022-09-15T01:47:05.534Z,14.71
2022-09-15T01:50:09.434Z,14.67
2022-09-15T01:52:43.313Z,14.63
2022-09-15T01:55:41.389Z,14.61
2022-09-15T01:58:09.797Z,14.57
2022-09-15T02:00:45.047Z,14.53
2022-09-15T02:03:33.387Z,14.50
2022-09-15T02:06:08.253Z,14.46
2022-09-15T02:08:43.704Z,14.43
2022-09-15T02:11:17.091Z,14.38
2022-09-15T02:13:50.297Z,14.34
2022-09-15T02:16:24.207Z,14.30
2022-09-15T02:19:11.479Z,14.26
2022-09-15T02:22:07.819Z,14.24
2022-09-15T02:24:41.208Z,14.24
2022-09-15T02:27:15.662Z,14.26
2022-09-15T02:29:47.750Z,14.28
2022-09-15T02:32:19.960Z,14.30
2022-09-15T02:34:51.554Z,14.34
2022-09-15T02:37:22.988Z,14.38
2022-09-15T02:40:00.476Z,14.43
2022-09-15T02:42:31.811Z,14.46
2022-09-15T02:45:01.315Z,14.51
2022-09-15T02:47:29.797Z,14.57
2022-09-15T02:49:58.176Z,14.64
2022-09-15T02:52:26.359Z,14.70
2022-09-15T02:54:54.530Z,14.73
2022-09-15T02:57:22.551Z,14.77
2022-09-15T03:00:08.692Z,14.80
2022-09-15T03:02:37.100Z,14.84
2022-09-15T03:05:06.653Z,14.87
2022-09-15T03:07:34.963Z,14.89
2022-09-15T03:10:03.231Z,14.89
2022-09-15T03:12:31.308Z,14.88
2022-09-15T03:14:59.246Z,14.86
2022-09-15T03:17:27.246Z,14.86
2022-09-15T03:19:55.418Z,14.84
2022-09-15T03:22:23.354Z,14.82
2022-09-15T03:24:51.970Z,14.79
2022-09-15T03:27:20.044Z,14.78
2022-09-15T03:29:48.421Z,14.75
2022-09-15T03:32:16.489Z,14.73
2022-09-15T03:34:44.639Z,14.71
2022-09-15T03:37:12.945Z,14.68
2022-09-15T03:39:40.902Z,14.66
2022-09-15T03:42:08.868Z,14.64
2022-09-15T03:44:36.893Z,14.62
2022-09-15T03:47:05.131Z,14.61
2022-09-15T03:49:33.506Z,14.62
2022-09-15T03:52:01.956Z,14.63
2022-09-15T03:54:29.962Z,14.66
2022-09-15T03:56:58.029Z,14.68
2022-09-15T03:59:26.100Z,14.72
2022-09-15T04:01:54.357Z,14.78
2022-09-15T04:04:22.556Z,14.84
2022-09-15T04:06:50.525Z,14.91
2022-09-15T04:09:20.396Z,14.97
2022-09-15T04:11:48.618Z,15.05
2022-09-15T04:14:16.939Z,15.13
2022-09-15T04:16:45.123Z,15.19
2022-09-15T04:19:13.957Z,15.23
2022-09-15T04:21:42.026Z,15.26
2022-09-15T04:24:09.998Z,15.31
2022-09-15T04:26:38.069Z,15.34
2022-09-15T04:29:13.870Z,15.37
2022-09-15T04:31:42.567Z,15.42
2022-09-15T04:34:10.884Z,15.45
2022-09-15T04:36:39.057Z,15.47
2022-09-15T04:39:07.025Z,15.48
2022-09-15T04:41:35.202Z,15.49
2022-09-15T04:44:03.222Z,15.50
2022-09-15T04:46:31.399Z,15.53
2022-09-15T04:48:59.525Z,15.54
2022-09-15T04:51:27.595Z,15.56
2022-09-15T04:53:55.866Z,15.57
2022-09-15T04:56:26.400Z,15.58
2022-09-15T04:59:02.456Z,15.58
2022-09-15T05:01:34.385Z,15.58
2022-09-15T05:04:06.642Z,15.60
2022-09-15T05:06:37.322Z,15.61
2022-09-15T05:09:10.246Z,15.63
2022-09-15T05:11:38.858Z,15.64
2022-09-15T05:14:08.297Z,15.65
2022-09-15T05:16:36.710Z,15.68
2022-09-15T05:19:04.831Z,15.71
2022-09-15T05:21:33.125Z,15.75
2022-09-15T05:24:01.602Z,15.79
2022-09-15T05:26:30.506Z,15.85
2022-09-15T05:28:58.878Z,15.93
2022-09-15T05:31:32.234Z,16.02
2022-09-15T05:34:03.000Z,16.12
2022-09-15T05:36:32.306Z,16.23
2022-09-15T05:39:01.803Z,16.34
2022-09-15T05:41:30.508Z,16.45
2022-09-15T05:43:59.394Z,16.58
2022-09-15T05:46:28.127Z,16.69
2022-09-15T05:48:58.312Z,16.77
2022-09-15T05:51:26.795Z,16.87
2022-09-15T05:53:54.866Z,16.98
2022-09-15T05:56:22.855Z,17.09
2022-09-15T05:58:50.894Z,17.20
2022-09-15T06:01:22.558Z,17.30
2022-09-15T06:03:51.751Z,17.40
2022-09-15T06:06:22.072Z,17.49
2022-09-15T06:08:58.604Z,17.57
2022-09-15T06:11:30.673Z,17.65
2022-09-15T06:14:03.906Z,17.72
2022-09-15T06:16:34.400Z,17.79
2022-09-15T06:19:03.505Z,17.85
2022-09-15T06:21:33.143Z,17.91
2022-09-15T06:24:04.589Z,17.95
2022-09-15T06:26:33.685Z,18.00
2022-09-15T06:29:03.957Z,18.05
2022-09-15T06:31:33.784Z,18.09
2022-09-15T06:34:04.117Z,18.14
2022-09-15T06:36:32.625Z,18.20
2022-09-15T06:39:00.700Z,18.26
2022-09-15T06:41:52.548Z,18.32
2022-09-15T06:44:20.493Z,18.39
2022-09-15T06:46:49.615Z,18.47
2022-09-15T06:49:18.178Z,18.53
2022-09-15T06:51:46.556Z,18.59
2022-09-15T06:54:16.374Z,18.66
2022-09-15T06:56:45.666Z,18.74
2022-09-15T06:59:15.176Z,18.82
2022-09-15T07:01:53.634Z,18.93
2022-09-15T07:04:22.575Z,19.01
2022-09-15T07:06:50.858Z,19.08
2022-09-15T07:09:19.748Z,19.16
2022-09-15T07:11:48.026Z,19.23
2022-09-15T07:14:15.918Z,19.31
2022-09-15T07:16:44.135Z,19.38
2022-09-15T07:19:12.447Z,19.45
2022-09-15T07:21:40.622Z,19.51
2022-09-15T07:24:10.541Z,19.61
2022-09-15T07:26:38.609Z,19.67
2022-09-15T07:29:07.197Z,19.79
2022-09-15T07:31:38.536Z,19.83
2022-09-15T07:34:07.799Z,19.88
2022-09-15T07:36:36.595Z,19.93
2022-09-15T07:39:06.242Z,19.99
2022-09-15T07:41:34.413Z,20.03
2022-09-15T07:44:02.890Z,20.07
2022-09-15T07:46:32.746Z,20.16
2022-09-15T07:49:03.384Z,20.22
2022-09-15T07:51:31.741Z,20.30
2022-09-15T07:54:00.604Z,20.34
2022-09-15T07:56:28.843Z,20.39
2022-09-15T07:58:57.053Z,20.42
2022-09-15T08:01:25.798Z,20.44
2022-09-15T08:03:54.029Z,20.46
2022-09-15T08:06:24.580Z,20.48
2022-09-15T08:08:57.670Z,20.51
2022-09-15T08:11:29.193Z,20.52
2022-09-15T08:14:01.705Z,20.53
2022-09-15T08:16:29.752Z,20.53
2022-09-15T08:18:58.119Z,20.54
2022-09-15T08:21:27.709Z,20.58
2022-09-15T08:23:58.324Z,20.60
2022-09-15T08:26:28.370Z,20.61
2022-09-15T08:28:56.648Z,20.63
2022-09-15T08:31:25.164Z,20.65
2022-09-15T08:33:55.627Z,20.67
2022-09-15T08:36:24.758Z,20.69
2022-09-15T08:38:52.826Z,20.70
2022-09-15T08:41:34.247Z,20.71
2022-09-15T08:44:13.238Z,20.71
2022-09-15T08:46:50.127Z,20.70
2022-09-15T08:49:50.533Z,20.70
2022-09-15T08:52:41.881Z,20.69
2022-09-15T08:55:21.917Z,20.69
2022-09-15T08:57:53.395Z,20.68
2022-09-15T09:00:21.445Z,20.65
2022-09-15T09:03:04.843Z,20.62
2022-09-15T09:06:02.435Z,20.63
2022-09-15T09:08:56.312Z,20.62
2022-09-15T09:11:28.888Z,20.60
2022-09-15T09:14:06.748Z,20.58
2022-09-15T09:16:53.705Z,20.55
2022-09-15T09:19:53.916Z,20.52
2022-09-15T09:22:26.170Z,20.50
2022-09-15T09:24:57.345Z,20.47
2022-09-15T09:27:30.026Z,20.44
2022-09-15T09:30:24.629Z,20.39
2022-09-15T09:33:14.098Z,20.32
2022-09-15T09:35:45.227Z,20.18
2022-09-15T09:38:35.432Z,20.01
2022-09-15T09:41:12.406Z,19.95
2022-09-15T09:43:42.716Z,19.95
2022-09-15T09:46:15.325Z,20.00
2022-09-15T09:48:59.969Z,20.04
2022-09-15T09:52:00.063Z,20.10
2022-09-15T09:54:29.361Z,20.16
2022-09-15T09:57:17.228Z,20.20
2022-09-15T09:59:47.864Z,20.14
2022-09-15T10:02:19.236Z,20.09
2022-09-15T10:04:56.018Z,20.00
2022-09-15T10:07:27.432Z,19.94
2022-09-15T10:09:58.520Z,19.91
2022-09-15T10:12:41.104Z,19.89
2022-09-15T10:15:22.887Z,19.87
2022-09-15T10:17:52.286Z,19.84
2022-09-15T10:20:32.736Z,19.83
2022-09-15T10:23:03.992Z,19.86
2022-09-15T10:25:49.636Z,19.86
2022-09-15T10:28:26.002Z,19.89
2022-09-15T10:31:16.040Z,19.98
2022-09-15T10:33:45.230Z,20.06
2022-09-15T10:36:19.156Z,20.15
2022-09-15T10:39:03.336Z,20.22
2022-09-15T10:41:32.894Z,20.27
2022-09-15T10:44:16.021Z,20.31
2022-09-15T10:46:56.714Z,20.34
2022-09-15T10:49:38.992Z,20.39
2022-09-15T10:52:35.744Z,20.48
2022-09-15T10:55:48.565Z,20.59
2022-09-15T10:58:34.242Z,20.76
2022-09-15T11:01:28.667Z,20.97
2022-09-15T11:03:56.913Z,21.24
2022-09-15T11:07:06.558Z,21.52
2022-09-15T11:09:51.116Z,21.84
2022-09-15T11:12:37.009Z,22.08
2022-09-15T11:15:54.832Z,22.31
2022-09-15T11:18:49.959Z,22.62
2022-09-15T11:21:24.111Z,22.99
2022-09-15T11:24:10.854Z,23.26
2022-09-15T11:26:49.495Z,23.52
2022-09-15T11:29:29.653Z,23.79
2022-09-15T11:32:15.336Z,24.10
2022-09-15T11:34:52.819Z,24.32
2022-09-15T11:37:25.465Z,24.47
2022-09-15T11:40:04.493Z,24.71
2022-09-15T11:42:32.358Z,24.87
2022-09-15T11:45:01.717Z,24.97
2022-09-15T11:47:49.021Z,25.09
2022-09-15T11:50:30.616Z,25.23
2022-09-15T11:53:13.733Z,25.42
2022-09-15T11:55:57.216Z,25.57
2022-09-15T11:59:03.029Z,25.76
2022-09-15T12:01:44.670Z,26.00
2022-09-15T12:04:35.731Z,26.22
2022-09-15T12:07:13.828Z,26.56
2022-09-15T12:09:43.037Z,26.88
2022-09-15T12:12:18.973Z,27.08
2022-09-15T12:14:49.970Z,27.28
2022-09-15T12:17:21.785Z,27.53
2022-09-15T12:20:04.261Z,27.61
2022-09-15T12:22:42.203Z,27.41
2022-09-15T12:25:22.053Z,27.51
2022-09-15T12:28:24.162Z,27.35
2022-09-15T12:31:26.554Z,26.79
2022-09-15T12:34:00.813Z,26.64
2022-09-15T12:36:34.650Z,26.58
2022-09-15T12:39:17.251Z,26.70
2022-09-15T12:41:57.872Z,27.01
2022-09-15T12:44:41.636Z,27.34
2022-09-15T12:47:36.917Z,27.80
2022-09-15T12:50:16.549Z,28.48
2022-09-15T12:52:51.964Z,29.06
2022-09-15T12:55:55.440Z,29.59
2022-09-15T12:58:35.288Z,30.04
2022-09-15T13:01:23.592Z,30.32
2022-09-15T13:03:54.169Z,30.53
2022-09-15T13:06:28.999Z,30.38
2022-09-15T13:09:06.041Z,29.99
2022-09-15T13:11:37.198Z,29.46
2022-09-15T13:14:08.770Z,29.13
2022-09-15T13:16:48.930Z,28.90
2022-09-15T13:19:41.627Z,29.14
2022-09-15T13:22:12.829Z,29.28
2022-09-15T13:25:04.878Z,29.67
2022-09-15T13:27:48.226Z,29.96
2022-09-15T13:30:37.174Z,29.97
2022-09-15T13:40:27.566Z,29.22
2022-09-15T13:43:44.508Z,28.70
2022-09-15T13:46:12.734Z,28.35
2022-09-15T13:48:52.637Z,28.07
2022-09-15T13:51:29.642Z,27.72
2022-09-15T13:54:06.427Z,27.54
2022-09-15T13:56:41.733Z,27.70
2022-09-15T13:59:30.696Z,27.87
2022-09-15T14:02:00.538Z,27.71
2022-09-15T14:04:31.857Z,27.18
2022-09-15T14:07:01.961Z,26.43
2022-09-15T14:09:35.365Z,26.31
2022-09-15T14:12:15.069Z,26.29
2022-09-15T14:14:52.299Z,26.13
2022-09-15T14:17:22.562Z,26.15
2022-09-15T14:19:56.328Z,26.12
2022-09-15T14:22:32.948Z,25.98
2022-09-15T14:25:07.183Z,25.85
2022-09-15T14:27:36.724Z,25.70
2022-09-15T14:30:08.427Z,25.60
2022-09-15T14:32:43.213Z,25.50
2022-09-15T14:35:19.815Z,25.25
2022-09-15T14:37:51.148Z,25.20
2022-09-15T14:40:29.116Z,25.18
2022-09-15T14:42:58.535Z,25.17
2022-09-15T14:48:30.928Z,25.30
2022-09-15T14:51:04.816Z,25.40
2022-09-15T14:53:38.744Z,25.11
2022-09-15T14:56:17.078Z,25.00
2022-09-15T14:58:53.568Z,24.96
2022-09-15T15:01:39.242Z,24.92
2022-09-15T15:04:13.346Z,24.85
2022-09-15T15:07:22.868Z,24.59
2022-09-15T15:09:58.319Z,24.44
2022-09-15T15:12:34.348Z,24.28
2022-09-15T15:15:03.293Z,24.19
2022-09-15T15:17:49.798Z,24.02
2022-09-15T15:20:22.960Z,23.92
2022-09-15T15:23:15.823Z,23.89
2022-09-15T15:25:44.398Z,23.66
2022-09-15T15:28:32.846Z,23.53
2022-09-15T15:31:19.592Z,23.50
2022-09-15T15:33:59.690Z,23.46
2022-09-15T15:36:29.424Z,23.38
2022-09-15T15:39:06.605Z,23.36
2022-09-15T15:41:39.318Z,23.34
2022-09-15T15:44:28.806Z,23.27
2022-09-15T15:47:03.777Z,23.18
2022-09-15T15:49:32.726Z,23.15
2022-09-15T15:52:02.053Z,23.12
2022-09-15T15:54:33.962Z,23.04
2022-09-15T15:57:21.943Z,23.02
2022-09-15T15:59:55.284Z,22.97
2022-09-15T16:02:25.263Z,22.96
2022-09-15T16:04:54.031Z,22.94
2022-09-15T16:07:24.429Z,22.89
2022-09-15T16:09:54.198Z,22.93
2022-09-15T16:12:22.503Z,22.89
2022-09-15T16:14:50.475Z,22.81
2022-09-15T16:17:18.413Z,22.76
2022-09-15T16:19:46.436Z,22.74
2022-09-15T16:22:19.350Z,22.71
2022-09-15T16:24:47.986Z,22.62
2022-09-15T16:27:18.005Z,22.55
2022-09-15T16:29:46.334Z,22.52
2022-09-15T16:32:19.739Z,22.48
2022-09-15T16:34:51.289Z,22.47
2022-09-15T16:37:19.500Z,22.40
2022-09-15T16:39:47.642Z,22.40
2022-09-15T16:42:16.259Z,22.39
2022-09-15T16:44:45.456Z,22.38
2022-09-15T16:47:13.534Z,22.33
2022-09-15T16:49:42.423Z,22.34
2022-09-15T16:52:13.603Z,22.29
2022-09-15T16:54:41.943Z,22.27
2022-09-15T16:57:10.256Z,22.25
2022-09-15T16:59:38.289Z,22.21
2022-09-15T17:02:13.977Z,22.18
2022-09-15T17:04:42.120Z,22.16
2022-09-15T17:07:10.193Z,22.10
2022-09-15T17:09:38.165Z,22.09
2022-09-15T17:12:08.762Z,22.08
2022-09-15T17:14:37.165Z,22.11
2022-09-15T17:17:05.446Z,22.12
2022-09-15T17:19:33.723Z,22.12
2022-09-15T17:22:01.790Z,22.10
2022-09-15T17:24:29.862Z,22.10
2022-09-15T17:26:57.937Z,22.09
2022-09-15T17:29:25.908Z,22.09
2022-09-15T17:31:54.288Z,22.07
2022-09-15T17:34:22.253Z,22.06
2022-09-15T17:36:50.328Z,22.06
2022-09-15T17:39:18.344Z,22.04
2022-09-15T17:41:47.286Z,22.03
2022-09-15T17:44:15.224Z,22.03
2022-09-15T17:46:43.331Z,22.01
2022-09-15T17:49:12.120Z,21.99
2022-09-15T17:51:40.186Z,21.99
2022-09-15T17:54:11.316Z,22.00
2022-09-15T17:56:39.403Z,21.99
2022-09-15T17:59:07.433Z,21.97
2022-09-15T18:01:35.714Z,21.98
2022-09-15T18:04:04.028Z,21.98
2022-09-15T18:06:32.104Z,21.95
2022-09-15T18:09:00.176Z,21.94
2022-09-15T18:11:29.061Z,21.91
2022-09-15T18:13:57.749Z,21.87
2022-09-15T18:16:25.827Z,21.79
2022-09-15T18:18:53.864Z,21.76
2022-09-15T18:21:27.123Z,21.77
2022-09-15T18:23:56.105Z,21.75
2022-09-15T18:26:26.569Z,21.74
2022-09-15T18:28:56.118Z,21.71
2022-09-15T18:31:24.775Z,21.67
2022-09-15T18:33:52.979Z,21.67
2022-09-15T18:36:21.361Z,21.69
2022-09-15T18:38:49.429Z,21.67
2022-09-15T18:41:17.517Z,21.68
2022-09-15T18:43:49.313Z,21.66
2022-09-15T18:46:18.544Z,21.64
2022-09-15T18:48:46.818Z,21.56
2022-09-15T18:51:23.661Z,21.46
2022-09-15T18:53:54.468Z,21.44
2022-09-15T18:56:22.825Z,21.41
2022-09-15T18:58:53.953Z,21.37
2022-09-15T19:01:22.716Z,21.31
2022-09-15T19:03:51.132Z,21.16
2022-09-15T19:06:19.286Z,21.13
2022-09-15T19:08:47.480Z,21.11
2022-09-15T19:11:16.353Z,21.04
2022-09-15T19:13:44.961Z,20.99
2022-09-15T19:16:13.338Z,20.96
2022-09-15T19:18:41.591Z,20.94
2022-09-15T19:21:12.038Z,20.93
2022-09-15T19:23:40.112Z,20.93
2022-09-15T19:26:15.968Z,20.95
2022-09-15T19:28:45.064Z,20.96
2022-09-15T19:31:13.957Z,20.99
2022-09-15T19:33:42.744Z,21.00
2022-09-15T19:36:27.460Z,21.01
2022-09-15T19:39:02.841Z,21.00
2022-09-15T19:41:31.331Z,20.93
2022-09-15T19:44:01.576Z,20.83
2022-09-15T19:46:29.846Z,20.72
2022-09-15T19:48:58.254Z,20.63
2022-09-15T19:51:26.480Z,20.54
2022-09-15T19:53:56.272Z,20.46
2022-09-15T19:56:28.573Z,20.39
2022-09-15T19:58:58.820Z,20.31
2022-09-15T20:01:29.378Z,20.25
2022-09-15T20:03:57.699Z,20.19
2022-09-15T20:06:30.260Z,20.08
2022-09-15T20:09:00.605Z,19.97
2022-09-15T20:11:30.714Z,19.92
2022-09-15T20:13:59.707Z,19.86
2022-09-15T20:16:28.195Z,19.83
2022-09-15T20:18:56.776Z,19.82
2022-09-15T20:21:48.821Z,19.85
2022-09-15T20:24:16.370Z,19.89
2022-09-15T20:26:44.338Z,19.93
2022-09-15T20:29:12.412Z,19.99
2022-09-15T20:31:41.098Z,20.02
2022-09-15T20:34:09.169Z,20.04
2022-09-15T20:36:39.118Z,20.05
2022-09-15T20:39:10.687Z,20.06
2022-09-15T20:41:40.140Z,20.06
2022-09-15T20:44:11.531Z,20.05
2022-09-15T20:46:40.319Z,20.06
2022-09-15T20:49:09.169Z,20.05
2022-09-15T20:51:37.349Z,20.01
2022-09-15T20:54:05.647Z,19.97
2022-09-15T20:56:35.294Z,19.93
2022-09-15T20:59:04.651Z,19.92
2022-09-15T21:01:36.695Z,19.94
2022-09-15T21:04:08.677Z,19.95
2022-09-15T21:06:37.039Z,19.95
2022-09-15T21:09:06.440Z,19.94
2022-09-15T21:11:34.820Z,19.90
2022-09-15T21:14:04.126Z,19.87
2022-09-15T21:16:34.101Z,19.84
2022-09-15T21:19:02.519Z,19.80
2022-09-15T21:21:32.858Z,19.76
2022-09-15T21:24:04.180Z,19.73
2022-09-15T21:26:56.736Z,19.70
2022-09-15T21:29:25.221Z,19.67
2022-09-15T21:31:55.918Z,19.64
2022-09-15T21:34:24.405Z,19.63
2022-09-15T21:36:53.764Z,19.61
2022-09-15T21:39:22.009Z,19.59
2022-09-15T21:41:50.255Z,19.59
2022-09-15T21:44:18.462Z,19.58
2022-09-15T21:46:47.424Z,19.59
2022-09-15T21:49:18.316Z,19.59
2022-09-15T21:51:46.582Z,19.58
2022-09-15T21:54:15.152Z,19.57
2022-09-15T21:56:43.224Z,19.56
2022-09-15T21:59:11.504Z,19.55
2022-09-15T22:01:39.878Z,19.54
2022-09-15T22:04:10.208Z,19.52
2022-09-15T22:06:40.838Z,19.49
2022-09-15T22:09:21.511Z,19.47
2022-09-15T22:11:50.190Z,19.36
2022-09-15T22:14:18.669Z,19.37
2022-09-15T22:16:46.915Z,19.39
2022-09-15T22:19:15.122Z,19.39
2022-09-15T22:21:43.197Z,19.40
2022-09-15T22:24:13.618Z,19.41
2022-09-15T22:26:43.692Z,19.41
2022-09-15T22:29:12.025Z,19.43
2022-09-15T22:31:41.097Z,19.46
2022-09-15T22:34:09.183Z,19.49
2022-09-15T22:36:37.261Z,19.51
2022-09-15T22:39:06.009Z,19.50
2022-09-15T22:41:37.973Z,19.51
2022-09-15T22:44:17.961Z,19.51
2022-09-15T22:46:46.444Z,19.54
2022-09-15T22:49:14.586Z,19.55
2022-09-15T22:51:43.101Z,19.56
2022-09-15T22:54:11.171Z,19.56
2022-09-15T22:56:39.137Z,19.56
2022-09-15T22:59:07.166Z,19.53
2022-09-15T23:01:36.242Z,19.51
2022-09-15T23:04:04.272Z,19.49
2022-09-15T23:06:33.988Z,19.48
2022-09-15T23:09:05.418Z,19.47
2022-09-15T23:11:35.147Z,19.46
2022-09-15T23:14:03.829Z,19.46
2022-09-15T23:16:32.535Z,19.44
2022-09-15T23:19:01.007Z,19.43
2022-09-15T23:21:29.280Z,19.42
2022-09-15T23:23:57.449Z,19.43
2022-09-15T23:26:26.882Z,19.45
2022-09-15T23:28:55.996Z,19.47
2022-09-15T23:31:24.255Z,19.48
2022-09-15T23:33:52.192Z,19.50
2022-09-15T23:36:20.698Z,19.46
2022-09-15T23:38:49.466Z,19.38
2022-09-15T23:41:18.476Z,19.33
2022-09-15T23:43:47.251Z,19.32
2022-09-15T23:46:17.415Z,19.32
2022-09-15T23:48:45.646Z,19.32
2022-09-15T23:51:13.715Z,19.30
2022-09-15T23:53:41.790Z,19.31
2022-09-15T23:56:09.872Z,19.32
2022-09-15T23:58:38.190Z,19.32
